Time;durP1;ratioP1;P1;durP2;ratioP2;P2;SDS_P1;SDS_P2;PMS_P1;PMS_P2;Temp;Humidity;BMP_temperature;BMP_pressure;BME280_temperature;BME280_humidity;BME280_pressure;Samples;Min_cycle;Max_cycle;Signal;HPM_P1;HPM_P2
2024/04/19 00:00:01;;;;;;;12.97;7.30;;;3.40;99.90;;;;;;5408353;26;20220;-62
2024/04/19 00:02:27;;;;;;;11.43;7.13;;;3.40;99.90;;;;;;5409287;26;20263;-62
2024/04/19 00:04:52;;;;;;;11.23;7.70;;;3.40;99.90;;;;;;5409346;26;20546;-62
2024/04/19 00:07:19;;;;;;;12.87;6.80;;;3.30;99.90;;;;;;5407703;26;20728;-62
2024/04/19 00:09:44;;;;;;;10.33;6.70;;;3.30;99.90;;;;;;5402285;26;20232;-62
2024/04/19 00:12:10;;;;;;;12.00;8.10;;;3.30;99.90;;;;;;5409609;26;20584;-63
2024/04/19 00:14:35;;;;;;;9.80;6.70;;;3.30;99.90;;;;;;5397199;26;20298;-63
2024/04/19 00:17:01;;;;;;;9.50;6.10;;;3.30;99.90;;;;;;5408292;26;20845;-63
2024/04/19 00:19:27;;;;;;;9.27;6.37;;;3.30;99.90;;;;;;5404909;26;20241;-64
2024/04/19 00:21:53;;;;;;;10.17;6.43;;;3.30;99.90;;;;;;5409564;26;20446;-64
2024/04/19 00:24:18;;;;;;;9.13;6.47;;;3.30;99.90;;;;;;5410119;26;20573;-64
2024/04/19 00:26:44;;;;;;;8.90;6.30;;;3.30;99.90;;;;;;5407870;26;20233;-64
2024/04/19 00:29:09;;;;;;;8.67;6.30;;;3.30;99.90;;;;;;5409537;26;20232;-64
2024/04/19 00:31:35;;;;;;;9.97;6.20;;;3.20;99.90;;;;;;5400830;26;20552;-64
2024/04/19 00:34:00;;;;;;;9.90;6.70;;;3.20;99.90;;;;;;5404837;26;20252;-64
2024/04/19 00:36:26;;;;;;;8.57;6.40;;;3.20;99.90;;;;;;5408420;26;20225;-64
2024/04/19 00:38:54;;;;;;;12.17;6.87;;;3.20;99.90;;;;;;5406946;26;20290;-64
2024/04/19 00:41:20;;;;;;;11.07;6.93;;;3.10;99.90;;;;;;5406776;26;20654;-63
2024/04/19 00:43:45;;;;;;;9.63;6.83;;;3.10;99.90;;;;;;5409683;26;20458;-64
2024/04/19 00:46:12;;;;;;;10.87;7.00;;;3.10;99.90;;;;;;5422451;26;20283;-64
2024/04/19 00:48:40;;;;;;;13.30;6.97;;;3.10;99.90;;;;;;5430989;26;20233;-64
2024/04/19 00:51:06;;;;;;;11.73;7.70;;;3.10;99.90;;;;;;5414346;26;20447;-64
2024/04/19 00:53:33;;;;;;;10.67;6.90;;;3.10;99.90;;;;;;5407517;26;21121;-64
2024/04/19 00:56:02;;;;;;;10.80;7.20;;;3.10;99.90;;;;;;5407668;26;20506;-64
2024/04/19 00:58:28;;;;;;;11.80;6.70;;;3.10;99.90;;;;;;5397797;26;20514;-64
2024/04/19 01:00:55;;;;;;;10.00;6.10;;;3.10;99.90;;;;;;5408453;26;20463;-64
2024/04/19 01:03:21;;;;;;;11.10;6.83;;;3.10;99.90;;;;;;5409755;26;20501;-63
2024/04/19 01:05:46;;;;;;;9.90;6.30;;;3.10;99.90;;;;;;5408984;26;21168;-64
2024/04/19 01:08:12;;;;;;;10.23;7.37;;;3.10;99.90;;;;;;5399801;26;20321;-64
2024/04/19 01:10:39;;;;;;;12.00;7.30;;;3.10;99.90;;;;;;5403293;26;20769;-64
2024/04/19 01:13:05;;;;;;;9.57;6.50;;;3.00;99.90;;;;;;5408337;26;20338;-64
2024/04/19 01:15:34;;;;;;;11.37;6.60;;;3.00;99.90;;;;;;5398636;26;21324;-64
2024/04/19 01:18:00;;;;;;;16.10;7.30;;;3.10;99.90;;;;;;5407121;26;20229;-64
2024/04/19 01:20:26;;;;;;;9.93;6.77;;;3.10;99.90;;;;;;5407689;26;20450;-64
2024/04/19 01:22:51;;;;;;;10.30;6.87;;;3.10;99.90;;;;;;5408073;26;20229;-63
2024/04/19 01:25:30;;;;;;;8.97;5.80;;;3.10;99.90;;;;;;5408224;26;20225;-63
2024/04/19 01:27:55;;;;;;;10.30;7.33;;;3.20;99.90;;;;;;5404180;26;20225;-63
2024/04/19 01:30:21;;;;;;;14.00;7.47;;;3.20;99.90;;;;;;5408080;26;20568;-64
2024/04/19 01:32:47;;;;;;;9.70;6.60;;;3.20;99.90;;;;;;5408056;26;20221;-64
2024/04/19 01:35:12;;;;;;;9.00;6.90;;;3.10;99.90;;;;;;5407157;26;20983;-64
2024/04/19 01:37:38;;;;;;;11.90;6.50;;;3.10;99.90;;;;;;5406595;26;20259;-63
2024/04/19 01:40:04;;;;;;;9.57;7.30;;;3.10;99.90;;;;;;5410399;26;20271;-63
2024/04/19 01:42:29;;;;;;;11.87;7.70;;;3.10;99.90;;;;;;5405940;26;20267;-64
2024/04/19 01:44:56;;;;;;;10.60;6.50;;;3.10;99.90;;;;;;5440584;26;20453;-64
2024/04/19 01:47:21;;;;;;;10.30;7.10;;;3.20;99.90;;;;;;5417376;26;20220;-64
2024/04/19 01:49:47;;;;;;;11.13;7.80;;;3.20;99.90;;;;;;5424212;26;20533;-64
2024/04/19 01:52:13;;;;;;;9.50;7.17;;;3.20;99.90;;;;;;5423683;26;20229;-64
2024/04/19 01:54:38;;;;;;;11.20;7.30;;;3.20;99.90;;;;;;5406203;26;20232;-63
2024/04/19 01:57:04;;;;;;;15.50;7.80;;;3.20;99.90;;;;;;5408129;26;20281;-63
2024/04/19 01:59:29;;;;;;;12.73;7.87;;;3.20;99.90;;;;;;5409435;26;20243;-64
2024/04/19 02:01:55;;;;;;;16.90;8.10;;;3.20;99.90;;;;;;5410040;26;20226;-64
2024/04/19 02:04:21;;;;;;;12.07;7.60;;;3.20;99.90;;;;;;5439454;26;20722;-64
2024/04/19 02:06:46;;;;;;;11.30;7.10;;;3.20;99.90;;;;;;5444586;26;20279;-64
2024/04/19 02:09:12;;;;;;;12.10;7.93;;;3.20;99.90;;;;;;5418080;26;20231;-63
2024/04/19 02:11:38;;;;;;;11.87;7.73;;;3.20;99.90;;;;;;5408448;26;20225;-62
2024/04/19 02:14:04;;;;;;;10.57;6.83;;;3.20;99.90;;;;;;5401507;26;20229;-63
2024/04/19 02:16:29;;;;;;;12.07;7.70;;;3.20;99.90;;;;;;5402301;26;20228;-63
2024/04/19 02:18:55;;;;;;;14.70;7.60;;;3.20;99.90;;;;;;5409529;26;20228;-63
2024/04/19 02:21:21;;;;;;;13.27;8.33;;;3.20;99.90;;;;;;5420565;26;20269;-63
2024/04/19 02:23:47;;;;;;;8.70;6.23;;;3.10;99.90;;;;;;5425936;26;20446;-63
2024/04/19 02:26:12;;;;;;;12.37;7.70;;;3.10;99.90;;;;;;5432007;26;21026;-63
2024/04/19 02:31:25;;;;;;;12.33;7.50;;;3.10;99.90;;;;;;5398928;26;20325;-63
2024/04/19 02:33:51;;;;;;;10.27;6.83;;;3.00;99.90;;;;;;5405052;26;20505;-62
2024/04/19 02:36:16;;;;;;;12.30;7.63;;;3.00;99.90;;;;;;5408814;26;21096;-62
2024/04/19 02:38:42;;;;;;;11.17;6.70;;;3.00;99.90;;;;;;5408670;26;20240;-63
2024/04/19 02:41:08;;;;;;;12.70;7.50;;;3.00;99.90;;;;;;5410576;26;20779;-63
2024/04/19 02:43:34;;;;;;;11.77;7.93;;;3.00;99.90;;;;;;5410934;26;20232;-63
2024/04/19 02:46:04;;;;;;;12.43;7.70;;;3.00;99.90;;;;;;5405270;26;20509;-63
2024/04/19 02:48:29;;;;;;;11.90;7.07;;;3.00;99.90;;;;;;5407043;26;20813;-63
2024/04/19 02:50:56;;;;;;;11.77;7.60;;;3.00;99.90;;;;;;5408723;26;20470;-63
2024/04/19 02:53:21;;;;;;;12.43;7.80;;;3.00;99.90;;;;;;5410406;26;20632;-63
2024/04/19 02:55:47;;;;;;;12.87;7.10;;;3.00;99.90;;;;;;5409281;26;20451;-63
2024/04/19 02:58:13;;;;;;;13.93;8.40;;;3.00;99.90;;;;;;5409596;26;20229;-63
2024/04/19 03:00:39;;;;;;;11.97;7.77;;;2.90;99.90;;;;;;5434429;26;20457;-64
2024/04/19 03:03:04;;;;;;;11.33;8.13;;;2.90;99.90;;;;;;5393058;26;20820;-63
2024/04/19 03:05:30;;;;;;;12.73;7.13;;;2.90;99.90;;;;;;5410145;26;20229;-63
2024/04/19 03:07:56;;;;;;;11.40;7.60;;;2.90;99.90;;;;;;5409431;26;20247;-61
2024/04/19 03:10:21;;;;;;;10.90;7.20;;;2.90;99.90;;;;;;5426671;26;20262;-62
2024/04/19 03:12:47;;;;;;;12.43;7.80;;;2.90;99.90;;;;;;5413661;26;20373;-63
2024/04/19 03:15:12;;;;;;;11.10;7.40;;;2.90;99.90;;;;;;5410178;26;20350;-63
2024/04/19 03:17:38;;;;;;;14.10;8.40;;;2.90;99.90;;;;;;5410075;26;20349;-63
2024/04/19 03:20:04;;;;;;;14.67;8.37;;;2.90;99.90;;;;;;5408757;26;20224;-63
2024/04/19 03:22:29;;;;;;;11.30;7.70;;;2.80;99.90;;;;;;5416792;26;20259;-62
2024/04/19 03:24:55;;;;;;;12.93;7.73;;;2.80;99.90;;;;;;5423942;26;20610;-63
2024/04/19 03:27:20;;;;;;;14.10;8.97;;;2.80;99.90;;;;;;5443932;26;20339;-63
2024/04/19 03:29:53;;;;;;;13.90;8.50;;;2.80;99.90;;;;;;5411929;26;20216;-63
2024/04/19 03:32:18;;;;;;;15.43;8.90;;;2.70;99.90;;;;;;5406329;26;20657;-63
2024/04/19 03:34:44;;;;;;;14.90;7.40;;;2.70;99.90;;;;;;5408974;26;20462;-62
2024/04/19 03:37:09;;;;;;;12.80;8.20;;;2.70;99.90;;;;;;5409017;26;22716;-63
2024/04/19 03:39:35;;;;;;;13.17;8.80;;;2.70;99.90;;;;;;5409282;26;20598;-62
2024/04/19 03:42:02;;;;;;;14.73;8.67;;;2.70;99.90;;;;;;5402991;26;20233;-63
2024/04/19 03:47:12;;;;;;;14.70;9.13;;;2.70;99.90;;;;;;5423059;26;20563;-63
2024/04/19 03:49:38;;;;;;;15.47;8.10;;;2.60;99.90;;;;;;5407475;26;20458;-63
2024/04/19 03:52:03;;;;;;;13.73;8.80;;;2.60;99.90;;;;;;5407987;26;20228;-63
2024/04/19 03:54:29;;;;;;;12.87;8.10;;;2.60;99.90;;;;;;5417527;26;20863;-62
2024/04/19 03:56:55;;;;;;;16.97;8.30;;;2.60;99.90;;;;;;5408652;26;20264;-63
2024/04/19 03:59:20;;;;;;;14.87;9.10;;;2.60;99.90;;;;;;5408583;26;20724;-62
2024/04/19 04:01:49;;;;;;;12.27;8.40;;;2.70;99.90;;;;;;5406912;26;20298;-63
2024/04/19 04:04:14;;;;;;;15.33;8.27;;;2.70;99.90;;;;;;5417777;26;20719;-63
2024/04/19 04:06:40;;;;;;;13.23;7.87;;;2.70;99.90;;;;;;5409448;26;20549;-63
2024/04/19 04:09:06;;;;;;;17.27;8.77;;;2.70;99.90;;;;;;5406416;26;20221;-63
2024/04/19 04:11:31;;;;;;;15.07;9.17;;;2.70;99.90;;;;;;5399189;26;20236;-63
2024/04/19 04:13:57;;;;;;;16.70;9.27;;;2.70;99.90;;;;;;5400487;26;20279;-62
2024/04/19 04:16:22;;;;;;;20.17;9.77;;;2.70;99.90;;;;;;5402386;26;20229;-63
2024/04/19 04:18:48;;;;;;;20.37;9.13;;;2.70;99.90;;;;;;5409432;26;20229;-63
2024/04/19 04:21:13;;;;;;;19.83;10.10;;;2.60;99.90;;;;;;5410201;26;20267;-63
2024/04/19 04:23:39;;;;;;;14.60;8.03;;;2.60;99.90;;;;;;5403336;26;20263;-62
2024/04/19 04:26:05;;;;;;;15.20;9.13;;;2.60;99.90;;;;;;5418806;26;20325;-63
2024/04/19 04:28:30;;;;;;;14.80;8.60;;;2.60;99.90;;;;;;5411300;26;20240;-63
2024/04/19 04:30:56;;;;;;;13.80;8.93;;;2.60;99.90;;;;;;5396619;26;20231;-63
2024/04/19 04:33:21;;;;;;;14.70;8.40;;;2.60;99.90;;;;;;5408974;26;20606;-63
2024/04/19 04:35:47;;;;;;;15.97;9.47;;;2.60;99.90;;;;;;5406473;26;20225;-63
2024/04/19 04:38:13;;;;;;;15.57;9.20;;;2.60;99.90;;;;;;5414306;26;20290;-63
2024/04/19 04:40:39;;;;;;;17.00;10.03;;;2.50;99.90;;;;;;5407151;26;20229;-64
2024/04/19 04:43:05;;;;;;;15.50;9.23;;;2.50;99.90;;;;;;5425166;26;20439;-63
2024/04/19 04:45:31;;;;;;;15.83;9.53;;;2.50;99.90;;;;;;5408023;26;20247;-61
2024/04/19 04:47:57;;;;;;;15.60;8.97;;;2.50;99.90;;;;;;5407747;26;20232;-62
2024/04/19 04:50:23;;;;;;;16.30;9.63;;;2.50;99.90;;;;;;5409888;26;21077;-62
2024/04/19 04:52:50;;;;;;;15.97;8.83;;;2.60;99.90;;;;;;5408671;26;20682;-63
2024/04/19 04:55:16;;;;;;;17.50;9.63;;;2.60;99.90;;;;;;5403671;26;20451;-63
2024/04/19 04:57:42;;;;;;;15.70;9.47;;;2.60;99.90;;;;;;5409403;26;20435;-63
2024/04/19 05:00:08;;;;;;;17.10;10.10;;;2.60;99.90;;;;;;5405551;26;20631;-63
2024/04/19 05:02:34;;;;;;;25.53;9.27;;;2.60;99.90;;;;;;5420500;26;20291;-63
2024/04/19 05:05:00;;;;;;;14.97;8.30;;;2.60;99.90;;;;;;5408523;26;20516;-62
2024/04/19 05:07:26;;;;;;;16.90;9.27;;;2.70;99.90;;;;;;5407810;26;20498;-63
2024/04/19 05:09:52;;;;;;;17.57;10.37;;;2.70;99.90;;;;;;5415297;26;20268;-62
2024/04/19 05:12:17;;;;;;;17.53;10.03;;;2.70;99.90;;;;;;5420020;26;20500;-63
2024/04/19 05:14:43;;;;;;;16.87;10.17;;;2.70;99.90;;;;;;5411731;26;20225;-63
2024/04/19 05:17:09;;;;;;;17.50;10.20;;;2.70;99.90;;;;;;5423370;26;20896;-61
2024/04/19 05:19:34;;;;;;;16.03;9.73;;;2.70;99.90;;;;;;5412488;26;20267;-63
2024/04/19 05:22:00;;;;;;;20.00;10.77;;;2.80;99.90;;;;;;5411902;26;20267;-63
2024/04/19 05:24:26;;;;;;;34.73;11.40;;;2.80;99.90;;;;;;5412437;26;20276;-63
2024/04/19 05:26:51;;;;;;;23.43;11.93;;;2.80;99.90;;;;;;5410671;26;20333;-61
2024/04/19 05:29:17;;;;;;;26.40;12.37;;;2.80;99.90;;;;;;5409458;26;20229;-63
2024/04/19 05:31:43;;;;;;;20.63;12.17;;;2.80;99.90;;;;;;5406992;26;20331;-62
2024/04/19 05:34:08;;;;;;;24.40;12.70;;;2.90;99.90;;;;;;5416889;26;20224;-61
2024/04/19 05:36:34;;;;;;;18.33;10.23;;;2.90;99.90;;;;;;5413170;26;20228;-62
2024/04/19 05:39:00;;;;;;;17.60;10.30;;;2.90;99.90;;;;;;5418431;26;20396;-62
2024/04/19 05:41:25;;;;;;;23.43;11.47;;;3.00;99.90;;;;;;5409335;26;20233;-63
2024/04/19 05:43:51;;;;;;;19.20;10.97;;;3.00;99.90;;;;;;5411516;26;20707;-63
2024/04/19 05:46:16;;;;;;;16.50;10.07;;;3.00;99.90;;;;;;5409953;26;20229;-63
2024/04/19 05:48:42;;;;;;;20.67;10.20;;;3.00;99.90;;;;;;5411542;26;20988;-62
2024/04/19 05:51:07;;;;;;;15.77;9.33;;;3.00;99.90;;;;;;5404480;26;20728;-63
2024/04/19 05:53:33;;;;;;;16.60;9.90;;;3.10;99.90;;;;;;5426643;26;20231;-63
2024/04/19 05:55:58;;;;;;;17.93;10.50;;;3.10;99.90;;;;;;5420201;26;20301;-63
2024/04/19 05:58:24;;;;;;;16.53;9.60;;;3.20;99.90;;;;;;5410566;26;20267;-62
2024/04/19 06:00:50;;;;;;;16.00;10.10;;;3.20;99.90;;;;;;5410554;26;20225;-63
2024/04/19 06:03:16;;;;;;;18.20;10.30;;;3.20;99.90;;;;;;5407768;26;20260;-63
2024/04/19 06:05:44;;;;;;;19.77;9.93;;;3.20;99.90;;;;;;5431981;26;20219;-62
2024/04/19 06:08:11;;;;;;;17.43;10.07;;;3.20;99.90;;;;;;5418079;26;20527;-62
2024/04/19 06:10:37;;;;;;;15.80;8.87;;;3.20;99.90;;;;;;5411022;26;20459;-63
2024/04/19 06:13:02;;;;;;;18.33;10.37;;;3.30;99.90;;;;;;5410976;26;20458;-63
2024/04/19 06:15:28;;;;;;;16.50;9.50;;;3.30;99.90;;;;;;5406404;26;20275;-63
2024/04/19 06:17:53;;;;;;;16.00;9.57;;;3.30;99.90;;;;;;5410230;26;20263;-63
2024/04/19 06:20:19;;;;;;;23.53;9.90;;;3.30;99.90;;;;;;5408285;26;21537;-63
2024/04/19 06:22:45;;;;;;;18.90;9.87;;;3.40;99.90;;;;;;5411638;26;20221;-63
2024/04/19 06:25:10;;;;;;;16.77;9.67;;;3.40;99.90;;;;;;5407633;26;20328;-63
2024/04/19 06:27:36;;;;;;;30.00;9.80;;;3.40;99.90;;;;;;5406616;26;20244;-63
2024/04/19 06:30:02;;;;;;;18.20;9.80;;;3.40;99.90;;;;;;5415944;26;20325;-63
2024/04/19 06:32:27;;;;;;;15.40;9.10;;;3.50;99.90;;;;;;5416156;26;20255;-63
2024/04/19 06:34:53;;;;;;;21.93;10.50;;;3.60;99.90;;;;;;5409677;26;20241;-62
2024/04/19 06:37:18;;;;;;;19.60;9.60;;;3.60;99.90;;;;;;5410093;26;20263;-64
2024/04/19 06:39:44;;;;;;;23.60;11.17;;;3.60;99.90;;;;;;5407454;26;20258;-63
2024/04/19 06:42:10;;;;;;;21.10;11.27;;;3.70;99.90;;;;;;5422221;26;20237;-63
2024/04/19 06:44:35;;;;;;;17.10;9.90;;;3.80;99.90;;;;;;5411235;26;20727;-63
2024/04/19 06:47:01;;;;;;;18.83;10.23;;;3.80;99.90;;;;;;5404635;26;20740;-63
2024/04/19 06:49:26;;;;;;;19.47;10.30;;;3.80;99.90;;;;;;5408643;26;20355;-63
2024/04/19 06:51:52;;;;;;;17.90;9.73;;;3.90;99.90;;;;;;5406487;26;20307;-62
2024/04/19 06:54:18;;;;;;;16.00;9.70;;;3.80;99.90;;;;;;5401315;26;20241;-63
2024/04/19 06:56:43;;;;;;;21.07;10.53;;;3.90;99.90;;;;;;5403118;26;20337;-63
2024/04/19 06:59:10;;;;;;;15.20;9.10;;;3.90;99.90;;;;;;5407247;26;20225;-63
2024/04/19 07:01:36;;;;;;;17.50;10.27;;;3.90;99.90;;;;;;5409533;26;20774;-63
2024/04/19 07:04:02;;;;;;;13.67;8.53;;;4.00;99.90;;;;;;5408257;26;20522;-63
2024/04/19 07:06:28;;;;;;;14.87;9.40;;;4.00;99.90;;;;;;5414226;26;20770;-63
2024/04/19 07:08:53;;;;;;;19.63;9.40;;;4.00;99.90;;;;;;5405487;26;20439;-63
2024/04/19 07:11:19;;;;;;;15.23;8.80;;;4.00;99.90;;;;;;5410776;26;20224;-63
2024/04/19 07:13:46;;;;;;;16.80;9.63;;;4.10;99.90;;;;;;5409892;26;20225;-63
2024/04/19 07:16:13;;;;;;;14.80;9.67;;;4.20;99.90;;;;;;5395301;26;20240;-64
2024/04/19 07:18:38;;;;;;;16.13;8.90;;;4.20;99.90;;;;;;5403499;26;20458;-63
2024/04/19 07:21:04;;;;;;;13.53;8.70;;;4.30;99.90;;;;;;5417144;26;20536;-63
2024/04/19 07:23:30;;;;;;;13.13;8.03;;;4.30;99.90;;;;;;5414869;26;20271;-63
2024/04/19 07:25:55;;;;;;;12.37;7.80;;;4.30;99.90;;;;;;5407693;26;20264;-63
2024/04/19 07:28:21;;;;;;;11.47;7.43;;;4.40;99.90;;;;;;5395803;26;20307;-62
2024/04/19 07:30:47;;;;;;;12.83;7.83;;;4.40;99.90;;;;;;5407536;26;21060;-63
2024/04/19 07:33:12;;;;;;;15.43;8.00;;;4.40;99.90;;;;;;5417236;26;20950;-63
2024/04/19 07:35:38;;;;;;;14.83;7.80;;;4.50;99.90;;;;;;5408838;26;20221;-63
2024/04/19 07:38:04;;;;;;;11.73;7.73;;;4.50;99.90;;;;;;5419171;26;20229;-63
2024/04/19 07:40:32;;;;;;;12.00;7.73;;;4.50;99.90;;;;;;5416313;26;20220;-63
2024/04/19 07:42:57;;;;;;;12.23;7.70;;;4.60;99.90;;;;;;5415012;26;20533;-63
2024/04/19 07:45:23;;;;;;;12.40;8.10;;;4.70;99.90;;;;;;5409060;26;20483;-63
2024/04/19 07:47:53;;;;;;;13.40;7.60;;;4.70;99.90;;;;;;5401289;26;20310;-63
2024/04/19 07:50:19;;;;;;;11.70;8.27;;;4.70;99.90;;;;;;5395602;26;20224;-63
2024/04/19 07:52:48;;;;;;;13.53;7.57;;;4.70;99.90;;;;;;5421367;26;20445;-62
2024/04/19 07:55:17;;;;;;;9.93;7.33;;;4.70;99.90;;;;;;5412347;26;20546;-63
2024/04/19 07:57:49;;;;;;;11.80;7.20;;;4.80;99.90;;;;;;5405994;26;20525;-63
2024/04/19 08:00:17;;;;;;;15.00;6.57;;;4.80;99.90;;;;;;5408696;26;20569;-62
2024/04/19 08:02:44;;;;;;;11.00;8.00;;;4.80;99.90;;;;;;5407808;26;20511;-63
2024/04/19 08:05:09;;;;;;;9.27;6.50;;;4.80;99.90;;;;;;5421170;26;20463;-63
2024/04/19 08:07:35;;;;;;;10.73;7.37;;;4.80;99.90;;;;;;5402115;26;20935;-62
2024/04/19 08:10:02;;;;;;;9.33;6.27;;;4.90;99.90;;;;;;5403872;26;20244;-63
2024/04/19 08:12:28;;;;;;;10.10;6.63;;;4.90;99.90;;;;;;5410896;26;20275;-63
2024/04/19 08:14:54;;;;;;;8.97;6.20;;;4.90;99.90;;;;;;5423289;26;20577;-61
2024/04/19 08:17:19;;;;;;;12.47;7.20;;;4.90;99.90;;;;;;5409274;26;20244;-63
2024/04/19 08:19:45;;;;;;;9.47;6.57;;;5.00;99.90;;;;;;5409549;26;20850;-63
2024/04/19 08:22:11;;;;;;;10.53;6.57;;;5.10;99.90;;;;;;5409283;26;20311;-63
2024/04/19 08:24:36;;;;;;;13.87;6.67;;;5.20;99.90;;;;;;5409520;26;20261;-63
2024/04/19 08:27:02;;;;;;;10.00;6.07;;;5.40;99.90;;;;;;5406039;26;20727;-63
2024/04/19 08:29:28;;;;;;;8.70;6.30;;;5.50;99.00;;;;;;5405657;26;20229;-63
2024/04/19 08:31:53;;;;;;;13.63;6.03;;;5.60;98.50;;;;;;5407998;26;20447;-61
2024/04/19 08:34:19;;;;;;;9.13;5.90;;;5.70;96.00;;;;;;5409603;26;20221;-64
2024/04/19 08:36:45;;;;;;;7.63;5.67;;;5.70;94.10;;;;;;5409041;26;20225;-63
2024/04/19 08:39:10;;;;;;;9.00;5.93;;;5.80;93.30;;;;;;5405679;26;20232;-63
2024/04/19 08:41:36;;;;;;;8.47;5.90;;;5.70;93.30;;;;;;5418365;26;20259;-63
2024/04/19 08:44:03;;;;;;;9.17;5.80;;;5.70;93.40;;;;;;5407001;26;20303;-63
2024/04/19 08:46:32;;;;;;;8.90;5.40;;;5.60;94.40;;;;;;5406923;26;20334;-63
2024/04/19 08:49:08;;;;;;;7.53;5.50;;;5.50;97.20;;;;;;5401616;26;21008;-63
2024/04/19 08:51:36;;;;;;;7.10;5.23;;;5.50;98.50;;;;;;5413020;26;20963;-62
2024/04/19 08:54:02;;;;;;;8.80;5.73;;;5.50;97.70;;;;;;5408718;26;20458;-63
2024/04/19 08:56:28;;;;;;;9.20;6.37;;;5.40;98.70;;;;;;5408013;26;20454;-63
2024/04/19 08:58:54;;;;;;;6.37;5.67;;;5.30;99.90;;;;;;5406172;26;20225;-61
2024/04/19 09:01:20;;;;;;;9.80;6.20;;;5.30;99.90;;;;;;5408748;26;20554;-63
2024/04/19 09:03:46;;;;;;;9.13;6.00;;;5.30;99.90;;;;;;5409047;26;20985;-64
2024/04/19 09:06:16;;;;;;;11.07;6.83;;;5.30;99.90;;;;;;5411312;26;20458;-63
2024/04/19 09:08:41;;;;;;;7.57;5.93;;;5.20;99.90;;;;;;5393863;26;20604;-63
2024/04/19 09:11:16;;;;;;;9.77;6.53;;;5.20;99.90;;;;;;5417163;26;21020;-63
2024/04/19 09:13:43;;;;;;;10.27;7.03;;;5.20;99.90;;;;;;5409777;26;20236;-63
2024/04/19 09:16:09;;;;;;;12.30;7.00;;;5.10;99.90;;;;;;5404810;26;20559;-63
2024/04/19 09:18:35;;;;;;;8.60;6.30;;;5.10;99.90;;;;;;5406851;26;20455;-63
2024/04/19 09:21:01;;;;;;;9.40;6.33;;;5.00;99.90;;;;;;5416140;26;20507;-63
2024/04/19 09:23:27;;;;;;;12.67;7.33;;;5.00;99.90;;;;;;5430354;26;20612;-63
2024/04/19 09:25:57;;;;;;;11.07;6.37;;;4.90;99.90;;;;;;5423233;26;20276;-63
2024/04/19 09:28:23;;;;;;;10.50;6.53;;;4.90;99.90;;;;;;5410239;26;20244;-63
2024/04/19 09:30:52;;;;;;;13.63;7.03;;;5.00;99.90;;;;;;5398354;26;20504;-63
2024/04/19 09:33:23;;;;;;;10.80;6.40;;;5.00;99.90;;;;;;5417287;26;20511;-63
2024/04/19 09:35:55;;;;;;;10.30;6.93;;;5.00;99.90;;;;;;5420017;26;20547;-63
2024/04/19 09:38:21;;;;;;;9.70;7.00;;;5.00;99.90;;;;;;5400832;26;20853;-63
2024/04/19 09:40:47;;;;;;;11.53;7.70;;;5.00;99.90;;;;;;5411805;26;20438;-61
2024/04/19 09:43:20;;;;;;;12.10;7.20;;;5.10;99.90;;;;;;5414816;26;20506;-63
2024/04/19 09:45:48;;;;;;;11.23;6.97;;;5.00;99.90;;;;;;5412582;26;20450;-63
2024/04/19 09:48:16;;;;;;;11.70;6.80;;;5.00;99.90;;;;;;5410553;26;20505;-63
2024/04/19 09:50:49;;;;;;;16.80;6.93;;;5.10;99.90;;;;;;5415127;26;20454;-63
2024/04/19 09:53:22;;;;;;;11.53;6.67;;;5.10;99.90;;;;;;5401572;26;20512;-63
2024/04/19 09:56:13;;;;;;;12.87;7.50;;;5.10;99.90;;;;;;5411761;26;20507;-64
2024/04/19 09:58:38;;;;;;;13.30;7.53;;;5.10;99.90;;;;;;5402276;26;20895;-63
2024/04/19 10:01:05;;;;;;;11.27;6.73;;;5.20;99.90;;;;;;5419129;26;20522;-63
2024/04/19 10:03:30;;;;;;;10.17;6.50;;;5.20;99.90;;;;;;5413283;26;20216;-63
2024/04/19 10:05:56;;;;;;;9.73;6.13;;;5.20;99.90;;;;;;5418607;26;20514;-62
2024/04/19 10:08:27;;;;;;;12.53;6.70;;;5.30;99.90;;;;;;5402277;26;20229;-63
2024/04/19 10:10:54;;;;;;;9.23;6.00;;;5.30;99.90;;;;;;5411428;26;20548;-63
2024/04/19 10:13:21;;;;;;;8.07;5.90;;;5.40;99.90;;;;;;5409297;26;20508;-63
2024/04/19 10:15:47;;;;;;;7.53;5.73;;;5.40;99.90;;;;;;5414126;26;20462;-63
2024/04/19 10:18:13;;;;;;;9.20;6.13;;;5.40;99.90;;;;;;5410156;26;20514;-64
2024/04/19 10:20:41;;;;;;;9.90;5.80;;;5.40;99.90;;;;;;5401279;26;20236;-63
2024/04/19 10:23:13;;;;;;;6.90;5.03;;;5.30;99.40;;;;;;5415229;26;20225;-63
2024/04/19 10:25:39;;;;;;;7.57;5.57;;;5.20;99.90;;;;;;5418476;26;20477;-63
2024/04/19 10:28:11;;;;;;;8.30;5.50;;;5.20;99.90;;;;;;5409299;26;20526;-63
2024/04/19 10:30:42;;;;;;;8.30;5.70;;;5.10;99.90;;;;;;5407540;26;20347;-63
2024/04/19 10:33:11;;;;;;;7.43;4.93;;;5.10;99.90;;;;;;5397146;26;20443;-63
2024/04/19 10:35:40;;;;;;;7.47;4.97;;;5.10;99.90;;;;;;5408350;26;21010;-64
2024/04/19 10:38:06;;;;;;;11.00;6.30;;;5.00;99.90;;;;;;5409675;26;20502;-63
2024/04/19 10:40:32;;;;;;;11.63;6.53;;;5.00;99.90;;;;;;5422090;26;20915;-63
2024/04/19 10:43:07;;;;;;;10.10;6.10;;;4.90;99.90;;;;;;5411136;26;20228;-64
2024/04/19 10:45:37;;;;;;;9.13;6.10;;;4.90;99.90;;;;;;5410134;26;20854;-63
2024/04/19 10:48:04;;;;;;;9.80;5.90;;;4.90;99.90;;;;;;5408047;26;20502;-63
2024/04/19 10:50:30;;;;;;;8.50;5.93;;;4.80;99.90;;;;;;5407840;26;20458;-63
2024/04/19 10:52:57;;;;;;;8.20;5.70;;;4.80;99.90;;;;;;5408857;26;20602;-63
2024/04/19 10:55:23;;;;;;;8.87;5.90;;;4.80;99.90;;;;;;5406207;26;20455;-62
2024/04/19 10:57:49;;;;;;;8.00;5.50;;;4.80;99.90;;;;;;5410690;26;20507;-63
2024/04/19 11:00:15;;;;;;;7.17;5.77;;;4.80;99.90;;;;;;5409400;26;20450;-63
2024/04/19 11:02:41;;;;;;;9.80;6.60;;;4.70;99.90;;;;;;5409928;26;21079;-62
2024/04/19 11:05:08;;;;;;;7.97;5.40;;;4.80;99.90;;;;;;5409221;26;20225;-63
2024/04/19 11:07:35;;;;;;;10.50;6.00;;;4.70;99.90;;;;;;5435408;21;20535;-62
2024/04/19 11:10:01;;;;;;;10.60;6.20;;;4.70;99.90;;;;;;5429734;26;20457;-61
2024/04/19 11:12:26;;;;;;;9.03;5.97;;;4.80;99.90;;;;;;5433829;26;20625;-62
2024/04/19 11:14:52;;;;;;;9.83;6.43;;;4.80;99.90;;;;;;5439901;26;20743;-61
2024/04/19 11:17:18;;;;;;;7.90;5.43;;;4.80;99.90;;;;;;5414530;26;20273;-62
2024/04/19 11:19:46;;;;;;;8.53;5.13;;;4.80;99.90;;;;;;5405046;26;20229;-61
2024/04/19 11:22:11;;;;;;;7.97;5.50;;;4.80;99.90;;;;;;5407351;26;20386;-62
2024/04/19 11:24:39;;;;;;;8.60;5.57;;;4.80;99.90;;;;;;5408562;26;20455;-61
2024/04/19 11:27:05;;;;;;;10.27;6.30;;;4.70;99.90;;;;;;5403356;26;20406;-61
2024/04/19 11:29:31;;;;;;;7.93;5.80;;;4.70;99.90;;;;;;5413234;26;20583;-62
2024/04/19 11:32:02;;;;;;;8.63;5.83;;;4.60;99.90;;;;;;5413244;26;20847;-61
2024/04/19 11:34:31;;;;;;;8.50;5.30;;;4.60;99.90;;;;;;5395940;26;20997;-61
2024/04/19 11:37:04;;;;;;;8.80;6.07;;;4.60;99.90;;;;;;5423047;26;20478;-61
2024/04/19 11:39:33;;;;;;;11.60;5.97;;;4.60;99.90;;;;;;5393290;26;20535;-61
2024/04/19 11:42:00;;;;;;;6.23;4.93;;;4.60;99.90;;;;;;5405450;26;20815;-61
2024/04/19 11:44:26;;;;;;;6.50;4.80;;;4.50;99.90;;;;;;5406578;26;20519;-62
2024/04/19 11:46:52;;;;;;;7.27;5.20;;;4.50;99.90;;;;;;5405228;26;20550;-61
2024/04/19 11:49:18;;;;;;;6.30;4.97;;;4.40;99.90;;;;;;5404912;26;20842;-63
2024/04/19 11:51:45;;;;;;;7.67;5.47;;;4.40;99.90;;;;;;5402709;26;20519;-62
2024/04/19 11:54:11;;;;;;;7.23;5.03;;;4.40;99.90;;;;;;5405699;26;20229;-62
2024/04/19 11:56:37;;;;;;;7.47;4.37;;;4.40;99.90;;;;;;5397617;26;20511;-61
2024/04/19 11:59:02;;;;;;;7.70;5.50;;;4.40;99.90;;;;;;5403931;26;20588;-63
2024/04/19 12:01:28;;;;;;;7.37;5.50;;;4.40;99.90;;;;;;5406159;26;20264;-62
2024/04/19 12:03:54;;;;;;;8.67;5.70;;;4.50;99.90;;;;;;5406026;26;20334;-61
2024/04/19 12:06:23;;;;;;;11.40;5.87;;;4.50;99.90;;;;;;5406175;26;20228;-62
2024/04/19 12:08:50;;;;;;;7.07;4.90;;;4.50;99.90;;;;;;5404025;26;20573;-61
2024/04/19 12:11:15;;;;;;;7.40;5.53;;;4.60;99.90;;;;;;5406241;26;21000;-60
2024/04/19 12:13:45;;;;;;;9.50;6.23;;;4.60;99.90;;;;;;5398980;26;21057;-62
2024/04/19 12:16:10;;;;;;;7.50;5.80;;;4.70;99.90;;;;;;5405489;26;20329;-62
2024/04/19 12:18:36;;;;;;;7.50;5.13;;;4.70;99.90;;;;;;5398150;26;20514;-62
2024/04/19 12:21:02;;;;;;;11.53;6.00;;;4.70;99.90;;;;;;5412766;26;20255;-62
2024/04/19 12:23:27;;;;;;;6.07;4.87;;;4.80;99.90;;;;;;5411527;26;20918;-61
2024/04/19 12:25:53;;;;;;;8.23;5.70;;;4.80;99.90;;;;;;5420140;26;20730;-61
2024/04/19 12:28:24;;;;;;;8.10;5.60;;;4.80;99.90;;;;;;5408280;26;20423;-62
2024/04/19 12:30:51;;;;;;;6.67;5.03;;;4.80;99.90;;;;;;5402761;26;20221;-62
2024/04/19 12:33:17;;;;;;;8.63;5.63;;;4.80;99.90;;;;;;5410374;26;20442;-62
2024/04/19 12:35:44;;;;;;;14.37;5.50;;;4.80;99.90;;;;;;5406346;26;20594;-61
2024/04/19 12:38:09;;;;;;;6.80;5.03;;;4.80;99.90;;;;;;5404430;26;20454;-61
2024/04/19 12:40:35;;;;;;;7.33;5.33;;;4.90;99.90;;;;;;5391896;26;20580;-61
2024/04/19 12:43:01;;;;;;;9.87;6.23;;;4.90;99.90;;;;;;5405539;26;20236;-61
2024/04/19 12:45:27;;;;;;;6.40;4.63;;;4.90;99.90;;;;;;5404507;26;20263;-61
2024/04/19 12:48:05;;;;;;;7.10;5.47;;;4.90;99.90;;;;;;5424729;26;20720;-61